createdAt,value
2018-09-16T00:01:40.864Z,101370.08
2018-09-16T00:04:08.956Z,101372.85
2018-09-16T00:06:37.024Z,101373.79
2018-09-16T00:09:07.876Z,101361.69
2018-09-16T00:11:36.045Z,101373.11
2018-09-16T00:14:04.096Z,101370.09
2018-09-16T00:16:32.157Z,101376.00
2018-09-16T00:19:00.242Z,101371.37
2018-09-16T00:21:28.313Z,101375.66
2018-09-16T00:23:56.391Z,101368.24
2018-09-16T00:26:24.439Z,101373.58
2018-09-16T00:28:52.527Z,101373.34
2018-09-16T00:31:20.593Z,101365.36
2018-09-16T00:33:48.900Z,101362.14
2018-09-16T00:38:44.130Z,101365.37
2018-09-16T00:41:12.197Z,101359.62
2018-09-16T00:43:40.291Z,101356.27
2018-09-16T00:46:08.490Z,101350.25
2018-09-16T00:48:36.569Z,101347.27
2018-09-16T00:51:04.625Z,101352.91
2018-09-16T00:53:32.785Z,101346.10
2018-09-16T00:56:00.851Z,101340.92
2018-09-16T00:58:28.955Z,101338.28
2018-09-16T01:00:58.243Z,101343.58
2018-09-16T01:03:26.433Z,101336.78
2018-09-16T01:05:59.952Z,101340.36
2018-09-16T01:08:28.012Z,101336.20
2018-09-16T01:10:57.471Z,101338.98
2018-09-16T01:13:25.539Z,101335.73
2018-09-16T01:15:53.596Z,101334.34
2018-09-16T01:18:21.714Z,101330.79
2018-09-16T01:20:49.813Z,101321.42
2018-09-16T01:23:17.903Z,101325.95
2018-09-16T01:25:45.980Z,101324.89
2018-09-16T01:28:14.059Z,101323.06
2018-09-16T01:30:42.137Z,101319.48
2018-09-16T01:33:10.261Z,101319.03
2018-09-16T01:35:38.375Z,101314.75
2018-09-16T01:38:11.804Z,101314.64
2018-09-16T01:40:39.925Z,101315.70
2018-09-16T01:43:07.972Z,101309.56
2018-09-16T01:45:36.067Z,101306.22
2018-09-16T01:48:04.160Z,101313.38
2018-09-16T01:50:32.231Z,101312.13
2018-09-16T01:53:00.322Z,101306.46
2018-09-16T01:55:28.380Z,101299.22
2018-09-16T01:57:56.455Z,101302.10
2018-09-16T02:00:25.638Z,101299.78
2018-09-16T02:02:54.971Z,101301.62
2018-09-16T02:05:28.519Z,101303.69
2018-09-16T02:07:57.353Z,101292.28
2018-09-16T02:10:25.440Z,101293.30
2018-09-16T02:12:53.544Z,101292.40
2018-09-16T02:15:21.619Z,101291.02
2018-09-16T02:17:50.537Z,101288.23
2018-09-16T02:20:18.662Z,101293.39
2018-09-16T02:22:46.728Z,101287.73
2018-09-16T02:25:14.835Z,101280.45
2018-09-16T02:27:42.919Z,101277.56
2018-09-16T02:30:11.009Z,101278.25
2018-09-16T02:32:39.097Z,101264.53
2018-09-16T02:35:07.196Z,101269.94
2018-09-16T02:37:35.268Z,101273.38
2018-09-16T02:40:03.344Z,101274.07
2018-09-16T02:42:31.408Z,101266.25
2018-09-16T02:44:59.513Z,101265.76
2018-09-16T02:47:27.595Z,101266.12
2018-09-16T02:49:55.698Z,101263.01
2018-09-16T02:52:23.807Z,101264.47
2018-09-16T02:54:51.925Z,101258.59
2018-09-16T02:57:20.009Z,101255.00
2018-09-16T02:59:48.078Z,101254.44
2018-09-16T03:02:16.184Z,101250.97
2018-09-16T03:04:44.249Z,101251.89
2018-09-16T03:07:12.366Z,101251.41
2018-09-16T03:09:40.442Z,101254.98
2018-09-16T03:12:08.528Z,101256.47
2018-09-16T03:14:36.615Z,101251.87
2018-09-16T03:17:04.688Z,101251.87
2018-09-16T03:19:32.764Z,101247.70
2018-09-16T03:22:00.828Z,101250.68
2018-09-16T03:24:28.898Z,101253.55
2018-09-16T03:26:56.998Z,101247.00
2018-09-16T03:29:25.114Z,101232.91
2018-09-16T03:31:53.391Z,101245.12
2018-09-16T03:34:21.462Z,101237.98
2018-09-16T03:36:49.554Z,101251.36
2018-09-16T03:39:17.652Z,101248.36
2018-09-16T03:41:45.755Z,101240.07
2018-09-16T03:44:13.937Z,101244.22
2018-09-16T03:46:42.102Z,101240.50
2018-09-16T03:49:10.236Z,101237.03
2018-09-16T03:51:38.328Z,101231.52
2018-09-16T03:54:06.460Z,101236.71
2018-09-16T03:56:34.511Z,101237.03
2018-09-16T03:59:02.600Z,101236.33
2018-09-16T04:01:30.693Z,101231.97
2018-09-16T04:03:58.803Z,101238.17
2018-09-16T04:06:26.900Z,101234.00
2018-09-16T04:08:54.974Z,101236.52
2018-09-16T04:11:23.059Z,101232.80
2018-09-16T04:13:51.215Z,101232.91
2018-09-16T04:16:19.263Z,101235.54
2018-09-16T04:18:47.341Z,101233.80
2018-09-16T04:21:15.435Z,101238.97
2018-09-16T04:23:45.569Z,101242.87
2018-09-16T04:26:14.568Z,101246.77
2018-09-16T04:28:42.841Z,101246.30
2018-09-16T04:31:10.956Z,101250.19
2018-09-16T04:33:39.086Z,101250.77
2018-09-16T04:36:07.187Z,101242.58
2018-09-16T04:38:35.289Z,101254.30
2018-09-16T04:41:03.392Z,101253.59
2018-09-16T04:43:31.468Z,101258.64
2018-09-16T04:45:59.566Z,101255.64
2018-09-16T04:48:27.647Z,101258.50
2018-09-16T04:50:55.728Z,101256.31
2018-09-16T04:53:24.184Z,101259.56
2018-09-16T04:55:52.255Z,101256.55
2018-09-16T04:58:20.327Z,101256.55
2018-09-16T05:00:48.451Z,101255.17
2018-09-16T05:03:16.543Z,101259.78
2018-09-16T05:05:44.632Z,101259.78
2018-09-16T05:08:12.715Z,101267.28
2018-09-16T05:10:40.802Z,101276.59
2018-09-16T05:13:08.889Z,101272.48
2018-09-16T05:15:36.988Z,101275.86
2018-09-16T05:18:05.066Z,101269.66
2018-09-16T05:20:33.125Z,101272.04
2018-09-16T05:23:01.191Z,101269.88
2018-09-16T05:25:29.292Z,101267.36
2018-09-16T05:27:57.364Z,101266.72
2018-09-16T05:30:25.482Z,101236.52
2018-09-16T05:32:53.546Z,101263.80
2018-09-16T05:35:21.605Z,101272.03
2018-09-16T05:37:49.700Z,101265.75
2018-09-16T05:40:17.787Z,101270.17
2018-09-16T05:42:45.872Z,101267.37
2018-09-16T05:45:13.955Z,101271.73
2018-09-16T05:47:42.042Z,101274.38
2018-09-16T05:50:10.135Z,101276.70
2018-09-16T05:52:38.262Z,101282.92
2018-09-16T05:55:06.275Z,101280.97
2018-09-16T05:57:34.430Z,101281.91
2018-09-16T06:00:02.519Z,101282.67
2018-09-16T06:02:30.621Z,101287.69
2018-09-16T06:04:58.773Z,101283.69
2018-09-16T06:07:26.837Z,101281.68
2018-09-16T06:09:54.908Z,101279.94
2018-09-16T06:12:23.152Z,101271.20
2018-09-16T06:14:51.228Z,101274.00
2018-09-16T06:17:19.391Z,101269.97
2018-09-16T06:19:47.468Z,101271.55
2018-09-16T06:22:15.544Z,101270.98
2018-09-16T06:24:43.704Z,101268.63
2018-09-16T06:27:11.821Z,101273.12
2018-09-16T06:29:39.957Z,101271.54
2018-09-16T06:32:08.039Z,101263.90
2018-09-16T06:34:36.136Z,101257.37
2018-09-16T06:37:04.223Z,101258.91
2018-09-16T06:39:32.297Z,101262.20
2018-09-16T06:42:00.392Z,101254.92
2018-09-16T06:44:28.481Z,101257.63
2018-09-16T06:46:56.568Z,101255.47
2018-09-16T06:49:24.636Z,101256.41
2018-09-16T06:51:52.767Z,101254.88
2018-09-16T06:54:20.852Z,101251.99
2018-09-16T06:56:48.933Z,101250.37
2018-09-16T06:59:17.005Z,101245.22
2018-09-16T07:01:45.104Z,101250.22
2018-09-16T07:04:13.171Z,101246.31
2018-09-16T07:06:41.272Z,101249.77
2018-09-16T07:09:13.653Z,101248.03
2018-09-16T07:11:42.444Z,101250.45
2018-09-16T07:14:10.524Z,101250.88
2018-09-16T07:16:38.887Z,101246.33
2018-09-16T07:19:07.468Z,101239.72
2018-09-16T07:21:35.538Z,101235.30
2018-09-16T07:24:03.604Z,101235.66
2018-09-16T07:26:31.717Z,101245.39
2018-09-16T07:28:59.808Z,101238.76
2018-09-16T07:31:27.863Z,101241.81
2018-09-16T07:33:55.973Z,101237.66
2018-09-16T07:36:24.041Z,101241.03
2018-09-16T07:38:52.125Z,101236.03
2018-09-16T07:41:20.210Z,101224.48
2018-09-16T07:43:48.351Z,101211.77
2018-09-16T07:46:16.432Z,101212.34
2018-09-16T07:48:44.567Z,101216.52
2018-09-16T07:51:12.636Z,101218.48
2018-09-16T07:53:40.718Z,101213.16
2018-09-16T07:56:08.894Z,101215.67
2018-09-16T07:58:36.989Z,101216.36
2018-09-16T08:01:05.228Z,101220.17
2018-09-16T08:03:33.307Z,101209.00
2018-09-16T08:06:01.396Z,101205.05
2018-09-16T08:08:29.524Z,101209.61
2018-09-16T08:10:57.699Z,101209.06
2018-09-16T08:13:25.831Z,101201.25
2018-09-16T08:15:53.933Z,101203.16
2018-09-16T08:18:22.006Z,101213.78
2018-09-16T08:20:50.196Z,101207.28
2018-09-16T08:23:18.270Z,101213.28
2018-09-16T08:25:46.341Z,101212.87
2018-09-16T08:28:14.424Z,101213.09
2018-09-16T08:30:42.499Z,101211.22
2018-09-16T08:33:10.597Z,101215.86
2018-09-16T08:35:38.740Z,101208.51
2018-09-16T08:38:06.855Z,101217.21
2018-09-16T08:40:34.884Z,101211.04
2018-09-16T08:43:02.976Z,101206.33
2018-09-16T08:45:31.164Z,101209.45
2018-09-16T08:47:59.228Z,101214.95
2018-09-16T08:50:27.379Z,101215.76
2018-09-16T08:52:55.458Z,101216.07
2018-09-16T08:55:23.655Z,101211.47
2018-09-16T08:57:51.734Z,101215.86
2018-09-16T09:00:19.785Z,101216.61
2018-09-16T09:02:47.840Z,101212.88
2018-09-16T09:05:15.916Z,101207.41
2018-09-16T09:07:45.641Z,101209.67
2018-09-16T09:10:13.712Z,101199.02
2018-09-16T09:12:41.789Z,101198.02
2018-09-16T09:15:09.946Z,101198.70
2018-09-16T09:17:38.086Z,101198.39
2018-09-16T09:20:06.182Z,101203.94
2018-09-16T09:22:34.261Z,101202.26
2018-09-16T09:25:02.709Z,101201.95
2018-09-16T09:27:31.030Z,101194.28
2018-09-16T09:29:59.221Z,101197.45
2018-09-16T09:32:27.308Z,101195.96
2018-09-16T09:34:55.419Z,101200.61
2018-09-16T09:37:23.488Z,101194.50
2018-09-16T09:39:51.627Z,101201.05
2018-09-16T09:42:19.727Z,101186.74
2018-09-16T09:44:47.828Z,101191.88
2018-09-16T09:47:15.900Z,101188.17
2018-09-16T09:49:44.063Z,101181.91
2018-09-16T09:52:12.220Z,101182.33
2018-09-16T09:54:40.352Z,101179.92
2018-09-16T09:57:08.615Z,101172.72
2018-09-16T09:59:36.716Z,101165.50
2018-09-16T10:02:04.868Z,101165.95
2018-09-16T10:04:33.028Z,101173.92
2018-09-16T10:07:02.780Z,101167.11
2018-09-16T10:09:31.127Z,101169.51
2018-09-16T10:11:59.196Z,101167.68
2018-09-16T10:14:27.297Z,101168.45
2018-09-16T10:16:55.338Z,101167.42
2018-09-16T10:19:23.407Z,101164.62
2018-09-16T10:21:51.534Z,101165.70
2018-09-16T10:24:19.629Z,101165.29
2018-09-16T10:26:47.698Z,101167.35
2018-09-16T10:29:15.824Z,101164.11
2018-09-16T10:31:43.942Z,101154.08
2018-09-16T10:34:12.051Z,101149.52
2018-09-16T10:36:40.129Z,101145.55
2018-09-16T10:39:10.085Z,101153.78
2018-09-16T10:41:38.152Z,101146.53
2018-09-16T10:44:06.233Z,101152.88
2018-09-16T10:46:34.305Z,101142.19
2018-09-16T10:49:02.418Z,101137.97
2018-09-16T10:51:30.565Z,101145.70
2018-09-16T10:53:58.660Z,101140.70
2018-09-16T10:56:26.735Z,101138.13
2018-09-16T10:58:54.832Z,101144.95
2018-09-16T11:01:22.892Z,101137.07
2018-09-16T11:03:50.948Z,101137.09
2018-09-16T11:06:19.043Z,101141.86
2018-09-16T11:08:47.098Z,101135.36
2018-09-16T11:11:15.189Z,101128.11
2018-09-16T11:13:43.232Z,101129.60
2018-09-16T11:16:11.335Z,101132.46
2018-09-16T11:18:39.405Z,101129.39
2018-09-16T11:21:07.476Z,101121.86
2018-09-16T11:23:35.546Z,101121.56
2018-09-16T11:26:03.873Z,101113.48
2018-09-16T11:28:32.068Z,101108.36
2018-09-16T11:31:00.253Z,101108.36
2018-09-16T11:33:28.446Z,101104.14
2018-09-16T11:35:56.560Z,101094.36
2018-09-16T11:38:24.679Z,101089.23
2018-09-16T11:40:52.807Z,101091.31
2018-09-16T11:43:21.031Z,101091.11
2018-09-16T11:45:50.015Z,101084.52
2018-09-16T11:48:18.261Z,101086.02
2018-09-16T11:50:46.421Z,101087.14
2018-09-16T11:53:14.587Z,101064.39
2018-09-16T11:55:42.786Z,101092.49
2018-09-16T11:58:10.931Z,101084.73
2018-09-16T12:00:39.052Z,101077.46
2018-09-16T12:03:07.136Z,101064.95
2018-09-16T12:05:35.301Z,101063.98
2018-09-16T12:08:03.441Z,101060.45
2018-09-16T12:10:31.534Z,101062.66
2018-09-16T12:12:59.612Z,101059.08
2018-09-16T12:15:27.954Z,101051.60
2018-09-16T12:17:56.154Z,101053.26
2018-09-16T12:20:24.389Z,101046.27
2018-09-16T12:22:52.484Z,101051.43
2018-09-16T12:25:20.562Z,101035.12
2018-09-16T12:27:49.030Z,101030.00
2018-09-16T12:30:17.143Z,101029.61
2018-09-16T12:32:45.298Z,101034.39
2018-09-16T12:35:13.439Z,101030.11
2018-09-16T12:37:41.555Z,101027.35
2018-09-16T12:40:09.641Z,101024.13
2018-09-16T12:42:37.775Z,101028.45
2018-09-16T12:45:06.061Z,101021.16
2018-09-16T12:47:35.186Z,101020.36
2018-09-16T12:50:03.297Z,101017.63
2018-09-16T12:52:31.388Z,101027.30
2018-09-16T12:54:59.501Z,101017.38
2018-09-16T12:57:27.698Z,101011.61
2018-09-16T12:59:55.839Z,101012.11
2018-09-16T13:02:23.942Z,101011.45
2018-09-16T13:04:52.104Z,101009.34
2018-09-16T13:07:20.350Z,101002.14
2018-09-16T13:09:48.452Z,100972.43
2018-09-16T13:12:16.654Z,101007.88
2018-09-16T13:14:44.747Z,101005.97
2018-09-16T13:17:12.892Z,100999.73
2018-09-16T13:19:40.999Z,100996.36
2018-09-16T13:22:09.150Z,100991.11
2018-09-16T13:24:37.259Z,100997.70
2018-09-16T13:27:05.376Z,100992.52
2018-09-16T13:29:33.518Z,100989.20
2018-09-16T13:32:01.636Z,100983.73
2018-09-16T13:34:29.737Z,100972.30
2018-09-16T13:36:58.668Z,100971.84
2018-09-16T13:39:26.780Z,100965.37
2018-09-16T13:41:54.850Z,100964.34
2018-09-16T13:44:22.984Z,100962.55
2018-09-16T13:46:51.083Z,100968.39
2018-09-16T13:49:19.309Z,100958.33
2018-09-16T13:51:47.436Z,100953.17
2018-09-16T13:54:15.550Z,100954.56
2018-09-16T13:56:43.935Z,100951.46
2018-09-16T13:59:12.065Z,100947.27
2018-09-16T14:01:40.147Z,100946.14
2018-09-16T14:04:08.205Z,100944.73
2018-09-16T14:06:36.335Z,100943.96
2018-09-16T14:09:06.242Z,100941.23
2018-09-16T14:11:34.444Z,100941.50
2018-09-16T14:14:02.534Z,100941.50
2018-09-16T14:16:30.636Z,100934.09
2018-09-16T14:18:58.742Z,100930.89
2018-09-16T14:21:26.930Z,100930.19
2018-09-16T14:23:55.068Z,100922.18
2018-09-16T14:26:23.161Z,100929.06
2018-09-16T14:28:51.331Z,100922.82
2018-09-16T14:31:19.452Z,100927.38
2018-09-16T14:33:47.650Z,100917.57
2018-09-16T14:36:15.761Z,100917.99
2018-09-16T14:38:43.990Z,100912.30
2018-09-16T14:41:12.316Z,100914.06
2018-09-16T14:43:40.449Z,100910.21
2018-09-16T14:46:08.590Z,100904.35
2018-09-16T14:48:36.863Z,100899.33
2018-09-16T14:51:04.975Z,100896.16
2018-09-16T14:53:33.296Z,100892.70
2018-09-16T14:56:01.600Z,100893.69
2018-09-16T14:58:29.724Z,100894.66
2018-09-16T15:00:57.820Z,100892.09
2018-09-16T15:03:25.974Z,100884.50
2018-09-16T15:05:54.227Z,100880.86
2018-09-16T15:08:22.380Z,100887.00
2018-09-16T15:10:50.480Z,100887.86
2018-09-16T15:13:18.686Z,100892.76
2018-09-16T15:15:47.168Z,100883.45
2018-09-16T15:18:15.307Z,100886.09
2018-09-16T15:20:43.643Z,100878.67
2018-09-16T15:23:11.737Z,100876.24
2018-09-16T15:25:39.857Z,100869.55
2018-09-16T15:28:07.943Z,100866.80
2018-09-16T15:30:37.256Z,100866.61
2018-09-16T15:33:05.578Z,100867.05
2018-09-16T15:35:33.729Z,100861.61
2018-09-16T15:38:01.855Z,100865.30
2018-09-16T15:40:30.084Z,100859.11
2018-09-16T15:42:58.175Z,100858.69
2018-09-16T15:45:26.428Z,100859.55
2018-09-16T15:47:54.537Z,100864.70
2018-09-16T15:50:22.717Z,100854.38
2018-09-16T15:52:50.806Z,100854.91
2018-09-16T15:55:18.947Z,100852.08
2018-09-16T15:57:47.095Z,100858.09
2018-09-16T16:00:15.196Z,100854.42
2018-09-16T16:02:43.419Z,100852.93
2018-09-16T16:05:11.512Z,100852.86
2018-09-16T16:07:39.606Z,100849.98
2018-09-16T16:10:07.792Z,100838.67
2018-09-16T16:12:35.933Z,100845.12
2018-09-16T16:15:04.070Z,100848.98
2018-09-16T16:17:33.410Z,100845.62
2018-09-16T16:20:02.123Z,100845.94
2018-09-16T16:22:30.280Z,100841.77
2018-09-16T16:24:58.324Z,100834.59
2018-09-16T16:27:26.510Z,100841.06
2018-09-16T16:29:54.616Z,100840.34
2018-09-16T16:32:22.708Z,100833.16
2018-09-16T16:34:50.783Z,100831.03
2018-09-16T16:37:18.845Z,100828.67
2018-09-16T16:39:46.911Z,100829.95
2018-09-16T16:42:14.976Z,100829.98
2018-09-16T16:44:43.101Z,100827.05
2018-09-16T16:47:11.162Z,100833.72
2018-09-16T16:49:39.269Z,100833.39
2018-09-16T16:52:07.372Z,100837.28
2018-09-16T16:54:35.560Z,100839.12
2018-09-16T16:57:03.680Z,100832.02
2018-09-16T16:59:31.823Z,100835.70
2018-09-16T17:02:00.033Z,100840.17
2018-09-16T17:04:28.113Z,100842.05
2018-09-16T17:06:56.226Z,100850.91
2018-09-16T17:09:24.377Z,100849.36
2018-09-16T17:11:52.492Z,100849.99
2018-09-16T17:14:20.655Z,100845.81
2018-09-16T17:16:48.789Z,100846.70
2018-09-16T17:19:17.627Z,100845.73
2018-09-16T17:21:45.717Z,100839.38
2018-09-16T17:24:13.833Z,100839.80
2018-09-16T17:26:41.970Z,100838.27
2018-09-16T17:29:10.155Z,100841.09
2018-09-16T17:31:38.230Z,100850.30
2018-09-16T17:34:06.416Z,100835.96
2018-09-16T17:36:34.509Z,100841.65
2018-09-16T17:39:02.643Z,100832.69
2018-09-16T17:41:30.780Z,100833.53
2018-09-16T17:43:58.913Z,100827.59
2018-09-16T17:46:26.921Z,100831.23
2018-09-16T17:48:55.118Z,100834.91
2018-09-16T17:51:23.272Z,100840.94
2018-09-16T17:53:51.457Z,100839.17
2018-09-16T17:56:19.614Z,100844.84
2018-09-16T17:58:47.747Z,100838.67
2018-09-16T18:01:15.877Z,100837.27
2018-09-16T18:03:43.996Z,100840.30
2018-09-16T18:06:12.117Z,100844.35
2018-09-16T18:08:44.413Z,100833.98
2018-09-16T18:11:13.623Z,100843.03
2018-09-16T18:13:41.986Z,100855.05
2018-09-16T18:16:10.412Z,100849.08
2018-09-16T18:18:38.748Z,100845.30
2018-09-16T18:21:07.552Z,100845.31
2018-09-16T18:23:37.214Z,100836.92
2018-09-16T18:26:05.320Z,100841.34
2018-09-16T18:28:33.457Z,100844.34
2018-09-16T18:31:01.527Z,100848.55
2018-09-16T18:33:29.661Z,100848.17
2018-09-16T18:35:57.817Z,100851.17
2018-09-16T18:38:25.889Z,100855.38
2018-09-16T18:40:54.047Z,100851.60
2018-09-16T18:43:22.288Z,100852.17
2018-09-16T18:45:50.420Z,100849.19
2018-09-16T18:48:18.493Z,100858.17
2018-09-16T18:50:46.546Z,100858.98
2018-09-16T18:53:14.926Z,100857.61
2018-09-16T18:55:42.970Z,100849.21
2018-09-16T18:58:11.070Z,100855.59
2018-09-16T19:00:39.114Z,100862.40
2018-09-16T19:03:07.279Z,100857.00
2018-09-16T19:05:35.476Z,100862.80
2018-09-16T19:08:03.557Z,100866.77
2018-09-16T19:10:31.642Z,100864.17
2018-09-16T19:12:59.715Z,100860.73
2018-09-16T19:15:27.822Z,100868.72
2018-09-16T19:17:55.955Z,100862.72
2018-09-16T19:20:24.009Z,100861.73
2018-09-16T19:22:52.096Z,100859.12
2018-09-16T19:25:20.147Z,100868.30
2018-09-16T19:27:48.229Z,100859.48
2018-09-16T19:30:16.285Z,100865.06
2018-09-16T19:32:44.348Z,100866.85
2018-09-16T19:35:12.437Z,100869.39
2018-09-16T19:37:40.501Z,100869.57
2018-09-16T19:40:08.620Z,100869.56
2018-09-16T19:42:36.620Z,100866.16
2018-09-16T19:45:05.144Z,100866.94
2018-09-16T19:47:33.653Z,100869.12
2018-09-16T19:50:01.789Z,100878.47
2018-09-16T19:52:29.950Z,100876.03
2018-09-16T19:54:58.352Z,100881.80
2018-09-16T19:57:26.558Z,100881.62
2018-09-16T19:59:54.670Z,100888.94
2018-09-16T20:02:22.792Z,100893.88
2018-09-16T20:04:50.873Z,100890.47
2018-09-16T20:07:18.912Z,100901.02
2018-09-16T20:09:47.050Z,100906.56
2018-09-16T20:12:15.280Z,100906.13
2018-09-16T20:14:43.320Z,100913.70
2018-09-16T20:17:12.634Z,100908.89
2018-09-16T20:19:40.788Z,100914.84
2018-09-16T20:22:09.352Z,100907.03
2018-09-16T20:24:37.515Z,100907.41
2018-09-16T20:27:06.358Z,100907.55
2018-09-16T20:29:34.460Z,100907.08
2018-09-16T20:32:02.939Z,100909.39
2018-09-16T20:34:30.997Z,100921.27
2018-09-16T20:36:59.077Z,100921.20
2018-09-16T20:39:27.282Z,100921.52
2018-09-16T20:41:55.327Z,100915.30
2018-09-16T20:44:23.403Z,100915.42
2018-09-16T20:46:51.687Z,100910.21
2018-09-16T20:49:19.813Z,100919.92
2018-09-16T20:51:47.911Z,100913.35
2018-09-16T20:54:15.969Z,100914.42
2018-09-16T20:56:44.034Z,100906.88
2018-09-16T20:59:12.112Z,100908.45
2018-09-16T21:01:40.185Z,100916.62
2018-09-16T21:04:08.270Z,100911.81
2018-09-16T21:06:36.637Z,100914.97
2018-09-16T21:09:08.464Z,100910.55
2018-09-16T21:11:36.538Z,100904.13
2018-09-16T21:14:04.740Z,100903.50
2018-09-16T21:16:32.796Z,100898.47
2018-09-16T21:19:00.877Z,100903.41
2018-09-16T21:21:28.997Z,100893.06
2018-09-16T21:23:57.116Z,100889.65
2018-09-16T21:26:25.319Z,100888.80
2018-09-16T21:28:53.555Z,100894.31
2018-09-16T21:31:21.616Z,100886.48
2018-09-16T21:33:49.710Z,100894.20
2018-09-16T21:36:17.773Z,100893.56
2018-09-16T21:38:45.891Z,100890.73
2018-09-16T21:41:14.125Z,100884.89
2018-09-16T21:43:42.199Z,100884.06
2018-09-16T21:46:10.343Z,100875.45
2018-09-16T21:48:38.419Z,100872.59
2018-09-16T21:51:06.544Z,100872.54
2018-09-16T21:53:34.616Z,100874.43
2018-09-16T21:56:02.692Z,100875.58
2018-09-16T21:58:30.760Z,100875.74
2018-09-16T22:00:58.921Z,100870.94
2018-09-16T22:03:26.985Z,100870.66
2018-09-16T22:05:55.467Z,100873.12
2018-09-16T22:08:23.563Z,100878.80
2018-09-16T22:10:51.617Z,100880.87
2018-09-16T22:13:19.704Z,100870.25
2018-09-16T22:15:47.756Z,100867.19
2018-09-16T22:18:15.802Z,100874.24
2018-09-16T22:20:43.839Z,100868.59
2018-09-16T22:23:11.936Z,100871.08
2018-09-16T22:25:39.994Z,100863.01
2018-09-16T22:28:08.059Z,100862.91
2018-09-16T22:30:36.111Z,100859.84
2018-09-16T22:33:04.176Z,100865.49
2018-09-16T22:35:32.360Z,100860.48
2018-09-16T22:38:00.428Z,100856.61
2018-09-16T22:40:28.476Z,100860.93
2018-09-16T22:42:56.532Z,100859.09
2018-09-16T22:45:24.607Z,100851.81
2018-09-16T22:47:52.900Z,100861.53
2018-09-16T22:50:20.957Z,100848.97
2018-09-16T22:52:49.120Z,100845.70
2018-09-16T22:55:18.283Z,100846.21
2018-09-16T22:57:46.356Z,100852.50
2018-09-16T23:00:16.536Z,100851.27
2018-09-16T23:02:44.647Z,100852.23
2018-09-16T23:05:12.712Z,100850.55
2018-09-16T23:07:41.047Z,100860.99
2018-09-16T23:10:09.107Z,100859.91
2018-09-16T23:12:37.204Z,100853.28
2018-09-16T23:15:05.263Z,100848.82
2018-09-16T23:17:33.321Z,100847.16
2018-09-16T23:20:01.371Z,100848.24
2018-09-16T23:22:29.434Z,100839.84
2018-09-16T23:24:57.756Z,100835.98
2018-09-16T23:27:26.031Z,100832.48
2018-09-16T23:29:54.145Z,100834.98
2018-09-16T23:32:22.245Z,100831.55
2018-09-16T23:34:50.300Z,100823.73
2018-09-16T23:37:18.387Z,100820.68
2018-09-16T23:39:46.454Z,100827.30
2018-09-16T23:42:14.520Z,100828.84
2018-09-16T23:44:42.564Z,100830.15
2018-09-16T23:47:10.620Z,100825.13
2018-09-16T23:49:38.691Z,100832.79
2018-09-16T23:52:06.743Z,100834.41
2018-09-16T23:54:34.797Z,100833.55
2018-09-16T23:57:02.857Z,100834.05
2018-09-16T23:59:30.943Z,100838.26
